Time;durP1;ratioP1;P1;durP2;ratioP2;P2;SDS_P1;SDS_P2;PMS_P1;PMS_P2;Temp;Humidity;BMP_temperature;BMP_pressure;BME280_temperature;BME280_humidity;BME280_pressure;Samples;Min_cycle;Max_cycle;Signal;HPM_P1;HPM_P2
2022/01/07 00:02:54;;;;;;;4.00;1.90;;;;;;;1.26;49.68;101048.09;5496714;32;34103;-72
2022/01/07 00:05:58;;;;;;;5.07;2.30;;;;;;;1.47;48.92;101052.59;5480252;32;34005;-73
2022/01/07 00:09:03;;;;;;;4.77;1.83;;;;;;;1.11;48.90;101055.75;5479392;32;34835;-76
2022/01/07 00:12:06;;;;;;;3.87;1.80;;;;;;;2.04;47.30;101057.34;5480130;32;35173;-75
2022/01/07 00:15:09;;;;;;;3.90;1.77;;;;;;;1.77;47.22;101057.19;5474678;32;35318;-75
2022/01/07 00:18:11;;;;;;;6.87;2.35;;;;;;;1.37;48.38;101056.84;5481161;32;34208;-72
2022/01/07 00:21:14;;;;;;;5.53;2.40;;;;;;;1.75;47.72;101061.50;5475107;32;36294;-75
2022/01/07 00:24:16;;;;;;;4.40;1.90;;;;;;;2.15;46.88;101062.62;5483498;32;34725;-75
2022/01/07 00:27:18;;;;;;;4.93;2.30;;;;;;;1.70;47.19;101056.25;5488410;32;34053;-72
2022/01/07 00:30:27;;;;;;;5.40;2.20;;;;;;;2.02;46.49;101079.84;5468781;32;34923;-71
2022/01/07 00:33:29;;;;;;;7.23;2.27;;;;;;;1.62;48.20;101084.72;5493276;32;33678;-75
2022/01/07 00:36:31;;;;;;;7.17;2.10;;;;;;;1.74;46.78;101091.72;5468944;32;35728;-74
2022/01/07 00:39:34;;;;;;;5.83;2.23;;;;;;;1.17;49.15;101086.88;5481424;32;35004;-74
2022/01/07 00:42:36;;;;;;;14.50;2.97;;;;;;;1.36;48.79;101083.63;5489510;32;34578;-78
2022/01/07 00:45:39;;;;;;;7.63;2.30;;;;;;;0.71;50.40;101088.91;5479974;32;34006;-76
2022/01/07 00:48:41;;;;;;;7.90;2.47;;;;;;;1.43;48.47;101098.34;5494648;32;35433;-73
2022/01/07 00:51:43;;;;;;;5.37;2.33;;;;;;;1.43;48.93;101100.94;5473058;32;33993;-74
2022/01/07 00:54:45;;;;;;;5.80;2.43;;;;;;;1.67;48.68;101104.59;5494596;32;34160;-73
2022/01/07 00:57:48;;;;;;;6.17;1.90;;;;;;;1.17;50.23;101094.66;5488684;32;33982;-73
2022/01/07 01:00:50;;;;;;;6.07;2.45;;;;;;;0.57;51.94;101096.50;5495564;32;33842;-72
2022/01/07 01:03:52;;;;;;;6.33;2.47;;;;;;;0.79;51.53;101090.78;5475021;32;35386;-75
2022/01/07 01:06:55;;;;;;;8.40;2.40;;;;;;;0.95;51.61;101086.62;5484166;32;34729;-73
2022/01/07 01:09:57;;;;;;;6.43;2.30;;;;;;;0.72;52.12;101095.84;5476116;32;34117;-74
2022/01/07 01:13:00;;;;;;;5.63;2.30;;;;;;;0.34;53.39;101106.56;5474488;32;34780;-75
2022/01/07 01:16:02;;;;;;;7.60;2.23;;;;;;;0.15;53.92;101096.81;5482406;32;35785;-74
2022/01/07 01:19:05;;;;;;;6.80;2.60;;;;;;;0.62;52.72;101084.50;5489651;32;33808;-75
2022/01/07 01:22:08;;;;;;;6.12;2.42;;;;;;;0.47;53.21;101067.09;5483007;32;33923;-72
2022/01/07 01:25:11;;;;;;;11.07;2.90;;;;;;;0.04;54.37;101063.03;5488599;32;35071;-74
2022/01/07 01:28:13;;;;;;;7.27;2.83;;;;;;;0.22;54.45;101067.59;5479633;32;33974;-72
2022/01/07 01:31:17;;;;;;;6.37;2.50;;;;;;;0.19;54.57;101062.38;5479202;32;35612;-74
2022/01/07 01:34:20;;;;;;;7.93;2.77;;;;;;;0.34;53.91;101064.31;5487970;32;33945;-71
2022/01/07 01:37:22;;;;;;;9.77;3.13;;;;;;;0.34;54.23;101072.09;5490176;32;36610;-71
2022/01/07 01:40:24;;;;;;;9.90;2.73;;;;;;;-0.22;55.76;101065.22;5488189;32;33958;-77
2022/01/07 01:43:26;;;;;;;7.77;2.77;;;;;;;0.37;54.41;101069.53;5497550;32;35050;-71
2022/01/07 01:46:29;;;;;;;5.70;2.70;;;;;;;0.82;52.54;101064.03;5476481;32;35902;-77
2022/01/07 01:49:31;;;;;;;9.53;3.27;;;;;;;-0.20;55.49;101076.44;5497746;32;34173;-77
2022/01/07 01:52:34;;;;;;;7.23;2.80;;;;;;;-0.03;55.15;101089.66;5492472;32;34049;-71
2022/01/07 01:55:36;;;;;;;8.40;2.33;;;;;;;-0.22;56.02;101095.38;5480821;32;35116;-72
2022/01/07 01:58:39;;;;;;;9.07;2.70;;;;;;;0.28;54.63;101098.72;5495785;32;36032;-74
2022/01/07 02:01:41;;;;;;;7.80;2.57;;;;;;;0.10;54.72;101098.44;5490969;32;35674;-74
2022/01/07 02:04:43;;;;;;;6.70;2.40;;;;;;;-0.53;57.27;101096.56;5496914;32;34732;-72
2022/01/07 02:07:45;;;;;;;6.83;2.80;;;;;;;0.40;54.30;101103.19;5490605;32;34260;-74
2022/01/07 02:10:48;;;;;;;12.27;3.13;;;;;;;0.11;55.47;101115.69;5471754;32;35140;-71
2022/01/07 02:13:56;;;;;;;7.67;2.77;;;;;;;0.80;52.87;101099.41;5477707;32;33898;-72
2022/01/07 02:17:06;;;;;;;8.43;2.83;;;;;;;0.22;54.66;101106.38;5495451;32;33777;-75
2022/01/07 02:20:09;;;;;;;9.13;2.50;;;;;;;0.02;55.59;101112.97;5497102;32;34121;-76
2022/01/07 02:23:12;;;;;;;6.47;2.87;;;;;;;0.07;55.27;101135.47;5464482;32;34389;-76
2022/01/07 02:26:14;;;;;;;6.40;2.60;;;;;;;0.52;53.88;101135.28;5469909;32;33868;-74
2022/01/07 02:29:17;;;;;;;10.20;3.10;;;;;;;0.89;52.91;101122.78;5491799;32;35181;-74
2022/01/07 02:32:19;;;;;;;8.87;2.97;;;;;;;1.04;52.08;101122.13;5485175;26;34108;-68
2022/01/07 02:35:24;;;;;;;8.53;2.83;;;;;;;0.32;53.52;101118.59;5452416;32;35283;-69
2022/01/07 02:38:26;;;;;;;9.20;2.93;;;;;;;0.39;53.92;101128.19;5449691;32;34277;-70
2022/01/07 02:41:29;;;;;;;9.17;2.67;;;;;;;0.86;52.55;101120.19;5460909;32;34574;-69
2022/01/07 02:44:31;;;;;;;10.00;3.17;;;;;;;0.34;53.01;101119.50;5455470;32;33960;-70
2022/01/07 02:47:41;;;;;;;7.43;2.50;;;;;;;0.61;53.39;101121.59;5458069;32;34866;-69
2022/01/07 02:50:44;;;;;;;8.07;3.00;;;;;;;0.75;52.28;101125.22;5438042;32;34171;-68
2022/01/07 02:53:46;;;;;;;7.00;2.90;;;;;;;1.05;51.75;101136.78;5452949;32;33931;-69
2022/01/07 02:56:48;;;;;;;7.80;3.20;;;;;;;1.27;51.38;101114.59;5457102;32;34284;-66
2022/01/07 02:59:50;;;;;;;10.17;3.07;;;;;;;1.24;51.13;101112.84;5424201;32;34417;-69
2022/01/07 03:02:53;;;;;;;9.57;2.77;;;;;;;0.84;52.54;101128.75;5447563;32;34943;-66
2022/01/07 03:05:56;;;;;;;9.10;3.25;;;;;;;1.21;51.17;101130.06;5426723;32;34065;-69
2022/01/07 03:08:58;;;;;;;10.37;2.97;;;;;;;2.15;48.98;101124.87;5429585;32;34720;-66
2022/01/07 03:12:00;;;;;;;8.20;2.90;;;;;;;1.72;49.53;101121.06;5448605;32;34209;-66
2022/01/07 03:15:05;;;;;;;7.43;2.80;;;;;;;1.55;49.54;101124.38;5448878;32;35343;-66
2022/01/07 03:18:08;;;;;;;7.07;2.73;;;;;;;0.63;51.94;101132.81;5458391;32;33952;-69
2022/01/07 03:21:10;;;;;;;6.70;2.47;;;;;;;0.94;51.62;101136.66;5451934;32;34352;-69
2022/01/07 03:24:12;;;;;;;5.50;2.20;;;;;;;1.37;50.68;101134.56;5458674;32;35408;-66
2022/01/07 03:27:15;;;;;;;9.03;3.20;;;;;;;0.95;50.78;101140.12;5436447;32;34804;-66
2022/01/07 03:30:18;;;;;;;6.67;3.03;;;;;;;1.03;51.18;101141.97;5445434;32;34841;-70
2022/01/07 03:33:21;;;;;;;6.93;2.95;;;;;;;1.31;50.53;101130.19;5435611;32;35173;-70
2022/01/07 03:36:23;;;;;;;8.23;2.60;;;;;;;1.21;50.38;101148.19;5432162;32;33919;-69
2022/01/07 03:39:25;;;;;;;11.30;3.20;;;;;;;2.15;47.91;101132.66;5458580;32;34109;-66
2022/01/07 03:42:27;;;;;;;8.67;2.90;;;;;;;1.22;49.63;101139.56;5454134;32;34232;-67
2022/01/07 03:45:30;;;;;;;8.03;3.00;;;;;;;0.95;50.90;101153.91;5454955;32;34740;-71
2022/01/07 03:48:32;;;;;;;9.03;3.23;;;;;;;0.51;51.59;101161.97;5451796;32;34474;-70
2022/01/07 03:51:34;;;;;;;7.17;2.47;;;;;;;1.07;49.87;101158.38;5454770;32;34680;-66
2022/01/07 03:54:36;;;;;;;6.83;2.97;;;;;;;1.97;48.07;101158.44;5427635;32;34089;-70
2022/01/07 03:57:39;;;;;;;6.67;2.57;;;;;;;1.01;50.19;101173.84;5435977;32;33540;-66
2022/01/07 04:00:41;;;;;;;7.07;2.57;;;;;;;1.62;49.22;101162.44;5457975;32;35433;-66
2022/01/07 04:03:44;;;;;;;8.47;2.80;;;;;;;2.11;46.25;101152.47;5438237;32;35277;-66
2022/01/07 04:06:46;;;;;;;9.20;2.90;;;;;;;0.74;49.42;101164.88;5450109;32;33961;-66
2022/01/07 04:09:48;;;;;;;9.17;2.70;;;;;;;0.67;49.97;101169.94;5440454;32;34781;-70
2022/01/07 04:12:50;;;;;;;9.73;2.77;;;;;;;1.12;48.79;101159.31;5426789;32;34238;-66
2022/01/07 04:15:52;;;;;;;7.33;2.90;;;;;;;0.93;49.39;101170.28;5439436;32;34428;-66
2022/01/07 04:18:55;;;;;;;7.73;3.00;;;;;;;1.22;48.70;101165.44;5438697;32;34850;-70
2022/01/07 04:21:57;;;;;;;7.80;2.63;;;;;;;1.35;48.07;101169.91;5443692;32;34577;-69
2022/01/07 04:25:04;;;;;;;8.37;3.00;;;;;;;1.74;47.68;101166.00;5448883;32;34804;-71
2022/01/07 04:28:07;;;;;;;15.50;3.47;;;;;;;1.27;48.32;101163.78;5456867;32;34421;-66
2022/01/07 04:31:09;;;;;;;13.00;4.68;;;;;;;1.18;48.51;101155.94;5450016;32;33987;-66
2022/01/07 04:34:11;;;;;;;7.23;3.10;;;;;;;1.29;48.72;101162.09;5436234;32;34626;-69
2022/01/07 04:37:14;;;;;;;12.80;3.67;;;;;;;1.47;47.71;101157.09;5436751;32;34448;-70
2022/01/07 04:40:17;;;;;;;9.23;3.10;;;;;;;1.18;49.17;101166.28;5436913;32;35361;-66
2022/01/07 04:43:19;;;;;;;7.20;3.17;;;;;;;0.94;48.95;101159.94;5451091;32;34009;-66
2022/01/07 04:46:22;;;;;;;6.03;2.70;;;;;;;0.95;49.96;101171.19;5450057;32;33853;-67
2022/01/07 04:49:24;;;;;;;8.23;3.57;;;;;;;0.68;50.19;101179.44;5442217;32;34774;-66
2022/01/07 04:52:26;;;;;;;7.13;3.13;;;;;;;1.21;48.48;101174.06;5450640;32;33999;-69
2022/01/07 04:55:36;;;;;;;11.27;3.40;;;;;;;0.70;50.39;101180.34;5437268;32;33748;-66
2022/01/07 04:58:38;;;;;;;8.17;3.50;;;;;;;1.38;49.20;101187.22;5457624;32;35457;-70
2022/01/07 05:01:40;;;;;;;17.63;6.40;;;;;;;2.14;47.01;101175.87;5431176;32;35263;-71
2022/01/07 05:04:42;;;;;;;12.40;4.77;;;;;;;1.55;48.36;101177.94;5447795;32;35188;-67
2022/01/07 05:07:45;;;;;;;7.87;3.53;;;;;;;0.82;51.25;101183.09;5448689;32;34031;-70
2022/01/07 05:10:47;;;;;;;7.13;3.00;;;;;;;1.45;49.59;101171.75;5439212;32;34185;-66
2022/01/07 05:13:49;;;;;;;11.10;4.07;;;;;;;1.95;47.70;101180.88;5451490;32;34175;-71
2022/01/07 05:16:51;;;;;;;10.50;3.60;;;;;;;1.07;50.38;101184.28;5436039;32;33988;-69
2022/01/07 05:19:53;;;;;;;13.87;4.03;;;;;;;2.01;47.87;101170.56;5446219;32;35954;-70
2022/01/07 05:22:55;;;;;;;11.07;4.23;;;;;;;1.10;50.01;101178.28;5439137;32;34087;-67
2022/01/07 05:25:58;;;;;;;8.77;3.40;;;;;;;1.10;50.19;101184.31;5457984;32;34544;-68
2022/01/07 05:29:00;;;;;;;12.30;5.40;;;;;;;1.34;50.18;101181.12;5452264;32;34416;-67
2022/01/07 05:32:04;;;;;;;11.83;4.43;;;;;;;0.84;51.13;101184.00;5456997;32;34502;-65
2022/01/07 05:35:08;;;;;;;12.90;4.40;;;;;;;1.08;51.36;101194.62;5449664;32;33998;-70
2022/01/07 05:38:10;;;;;;;17.10;4.15;;;;;;;1.01;50.87;101200.59;5436783;32;34179;-70
2022/01/07 05:41:12;;;;;;;12.27;4.33;;;;;;;0.68;51.84;101200.16;5461201;32;34601;-70
2022/01/07 05:44:14;;;;;;;11.97;4.60;;;;;;;0.75;51.55;101205.44;5451000;32;34281;-71
2022/01/07 05:47:16;;;;;;;9.77;4.00;;;;;;;1.61;49.64;101199.59;5458978;32;35950;-68
2022/01/07 05:50:18;;;;;;;12.43;4.03;;;;;;;0.63;51.91;101204.38;5438067;32;33984;-67
2022/01/07 05:53:20;;;;;;;73.17;7.50;;;;;;;1.61;49.35;101194.41;5458227;32;34466;-71
2022/01/07 05:56:23;;;;;;;85.80;8.10;;;;;;;0.57;51.26;101206.87;5452359;32;34852;-70
2022/01/07 05:59:25;;;;;;;19.30;6.23;;;;;;;0.24;52.73;101206.37;5455431;32;34472;-70
2022/01/07 06:02:27;;;;;;;12.03;4.20;;;;;;;0.88;51.00;101209.06;5454591;32;33839;-69
2022/01/07 06:05:30;;;;;;;9.73;4.27;;;;;;;0.56;52.30;101218.94;5438754;32;34511;-71
2022/01/07 06:08:32;;;;;;;11.50;3.87;;;;;;;1.05;51.04;101217.91;5448993;32;34043;-71
2022/01/07 06:11:34;;;;;;;10.77;4.60;;;;;;;0.39;52.44;101217.84;5434534;32;34980;-67
2022/01/07 06:14:36;;;;;;;10.40;3.57;;;;;;;0.47;52.86;101224.84;5457200;32;32133;-66
2022/01/07 06:17:38;;;;;;;11.83;4.23;;;;;;;0.73;52.21;101214.03;5438636;32;35306;-69
2022/01/07 06:20:41;;;;;;;11.77;4.20;;;;;;;0.85;51.79;101219.38;5451646;32;34006;-70
2022/01/07 06:23:44;;;;;;;10.33;3.80;;;;;;;1.40;50.29;101222.66;5446259;32;34853;-69
2022/01/07 06:26:46;;;;;;;15.93;4.77;;;;;;;1.98;48.71;101207.69;5415354;32;34569;-70
2022/01/07 06:29:48;;;;;;;10.07;3.97;;;;;;;0.38;53.34;101231.59;5452083;32;35232;-66
2022/01/07 06:32:50;;;;;;;12.10;4.03;;;;;;;0.66;53.32;101238.06;5428862;32;34509;-66
2022/01/07 06:35:52;;;;;;;9.53;4.00;;;;;;;1.33;51.76;101231.19;5445113;32;33880;-67
2022/01/07 06:38:55;;;;;;;13.97;4.63;;;;;;;0.14;54.85;101239.84;5436612;32;34059;-69
2022/01/07 06:41:58;;;;;;;9.30;4.20;;;;;;;0.01;55.62;101243.06;5425861;32;34560;-66
2022/01/07 06:45:01;;;;;;;12.37;4.37;;;;;;;0.66;53.92;101245.84;5437428;32;34953;-66
2022/01/07 06:48:03;;;;;;;14.50;5.60;;;;;;;0.88;53.67;101253.06;5439606;32;34018;-66
2022/01/07 06:51:06;;;;;;;15.77;4.50;;;;;;;1.13;52.85;101251.66;5431878;32;35253;-63
2022/01/07 06:54:11;;;;;;;15.10;4.30;;;;;;;1.03;52.08;101255.88;5442785;32;34784;-67
2022/01/07 06:57:13;;;;;;;12.53;4.63;;;;;;;1.05;53.10;101248.97;5443153;32;36165;-68
2022/01/07 07:00:16;;;;;;;11.57;4.83;;;;;;;0.75;54.04;101257.19;5445476;32;33991;-67
2022/01/07 07:03:18;;;;;;;10.57;4.50;;;;;;;1.01;53.45;101261.84;5443910;32;33807;-67
2022/01/07 07:06:20;;;;;;;15.43;5.70;;;;;;;1.76;51.00;101252.44;5433348;32;33909;-63
2022/01/07 07:09:23;;;;;;;10.70;5.03;;;;;;;1.12;52.59;101262.88;5443910;32;34649;-67
2022/01/07 07:12:25;;;;;;;13.10;4.87;;;;;;;1.91;50.75;101255.16;5445727;32;35025;-66
2022/01/07 07:15:28;;;;;;;12.30;4.47;;;;;;;0.98;52.90;101265.28;5441491;32;34010;-66
2022/01/07 07:18:30;;;;;;;15.97;5.53;;;;;;;1.92;50.82;101258.62;5434614;32;33976;-65
2022/01/07 07:21:33;;;;;;;12.93;4.70;;;;;;;1.79;51.10;101255.03;5447518;32;34474;-65
2022/01/07 07:24:36;;;;;;;14.35;5.28;;;;;;;0.33;55.40;101272.91;5444356;32;36527;-67
2022/01/07 07:27:38;;;;;;;13.00;6.20;;;;;;;0.80;54.83;101276.25;5438429;32;34052;-65
2022/01/07 07:30:42;;;;;;;17.60;8.67;;;;;;;1.40;52.25;101260.63;5444621;32;35347;-65
2022/01/07 07:36:49;;;;;;;16.73;5.77;;;;;;;0.94;54.48;101270.38;5447221;32;36142;-68
2022/01/07 07:39:52;;;;;;;14.97;7.27;;;;;;;1.05;52.80;101268.84;5432193;32;34598;-65
2022/01/07 07:42:54;;;;;;;10.80;5.87;;;;;;;0.18;57.03;101270.06;5420431;32;35187;-70
2022/01/07 07:45:59;;;;;;;18.30;6.37;;;;;;;1.63;52.49;101262.66;5449946;32;34027;-70
2022/01/07 07:49:03;;;;;;;16.00;5.40;;;;;;;0.70;55.44;101270.87;5436012;32;34899;-68
2022/01/07 07:52:05;;;;;;;;;;;;;;;-0.20;57.77;101277.97;5430648;32;34443;-70
2022/01/07 07:55:08;;;;;;;20.73;6.10;;;;;;;0.37;56.88;101282.44;5436886;32;36728;-71
2022/01/07 07:58:10;;;;;;;16.43;5.57;;;;;;;1.24;54.70;101272.53;5414934;32;33966;-68
2022/01/07 08:01:14;;;;;;;15.43;5.13;;;;;;;1.28;53.08;101272.56;5439466;32;35356;-70
2022/01/07 08:04:19;;;;;;;18.20;6.17;;;;;;;1.61;53.31;101279.91;5436355;32;33559;-68
2022/01/07 08:07:22;;;;;;;18.00;5.87;;;;;;;0.95;53.98;101274.72;5444685;32;34098;-65
2022/01/07 08:10:25;;;;;;;15.07;5.60;;;;;;;1.08;54.20;101282.66;5437722;32;35364;-67
2022/01/07 08:13:31;;;;;;;12.25;5.22;;;;;;;1.83;52.37;101269.78;5428677;32;32848;-71
2022/01/07 08:16:33;;;;;;;11.57;5.17;;;;;;;2.15;49.78;101263.19;5428960;32;33575;-64
2022/01/07 08:19:36;;;;;;;14.33;6.43;;;;;;;0.86;54.27;101279.78;5437817;32;33806;-68
2022/01/07 08:22:38;;;;;;;14.93;6.20;;;;;;;1.24;54.04;101283.75;5444742;32;34697;-67
2022/01/07 08:25:41;;;;;;;15.43;6.03;;;;;;;1.05;54.53;101287.81;5445079;32;35248;-68
2022/01/07 08:28:51;;;;;;;14.67;5.87;;;;;;;1.33;52.62;101286.47;5440549;32;33064;-66
2022/01/07 08:35:14;;;;;;;13.80;6.13;;;;;;;1.53;53.06;101291.88;5447148;32;34550;-66
2022/01/07 08:38:17;;;;;;;15.87;5.93;;;;;;;2.02;51.44;101287.25;5439781;32;35701;-66
2022/01/07 08:41:21;;;;;;;11.27;5.00;;;;;;;2.66;49.09;101285.22;5449318;32;33633;-66
2022/01/07 08:44:26;;;;;;;12.03;5.03;;;;;;;3.03;45.44;101280.31;5426594;32;33896;-67
2022/01/07 08:47:28;;;;;;;12.37;5.40;;;;;;;2.96;44.46;101286.28;5449593;32;33141;-67
2022/01/07 08:50:30;;;;;;;16.30;5.53;;;;;;;1.79;47.62;101270.59;5434453;32;34371;-67
2022/01/07 08:53:33;;;;;;;15.87;5.50;;;;;;;1.41;48.69;101293.47;5443025;32;34716;-67
2022/01/07 08:56:37;;;;;;;12.93;4.80;;;;;;;1.48;48.45;101297.84;5414397;32;34783;-69
2022/01/07 08:59:39;;;;;;;19.98;7.22;;;;;;;0.76;50.25;101300.31;5410308;32;282047;-69
2022/01/07 09:02:42;;;;;;;11.80;4.70;;;;;;;0.92;51.01;101296.25;5448133;32;35395;-70
2022/01/07 09:05:44;;;;;;;14.27;5.53;;;;;;;1.01;49.87;101298.97;5445709;32;34368;-67
2022/01/07 09:08:47;;;;;;;15.97;5.77;;;;;;;2.17;46.85;101300.38;5442332;32;35219;-70
2022/01/07 09:11:49;;;;;;;12.53;5.27;;;;;;;2.34;46.49;101290.16;5429786;32;34837;-72
2022/01/07 09:14:52;;;;;;;14.43;5.67;;;;;;;2.74;44.89;101285.28;5437783;32;34642;-68
2022/01/07 09:17:54;;;;;;;13.00;5.87;;;;;;;2.47;46.22;101279.91;5443442;32;34059;-67
2022/01/07 09:20:57;;;;;;;11.43;4.80;;;;;;;2.60;44.95;101268.75;5426303;32;36483;-67
2022/01/07 09:23:59;;;;;;;14.27;4.80;;;;;;;2.40;44.61;101271.19;5448400;32;34376;-67
2022/01/07 09:27:01;;;;;;;10.07;4.73;;;;;;;2.54;44.15;101272.16;5416737;32;35683;-68
2022/01/07 09:30:04;;;;;;;13.40;5.13;;;;;;;2.62;43.80;101262.69;5442489;32;35045;-64
2022/01/07 09:33:06;;;;;;;12.07;5.37;;;;;;;2.17;44.59;101258.88;5444467;32;33834;-66
2022/01/07 09:36:09;;;;;;;11.87;5.13;;;;;;;2.97;42.71;101249.09;5446725;32;36597;-64
2022/01/07 09:39:11;;;;;;;10.23;4.70;;;;;;;3.35;41.82;101245.78;5449703;32;34898;-64
2022/01/07 09:42:13;;;;;;;10.77;4.80;;;;;;;3.12;41.67;101249.16;5451411;32;34499;-62
2022/01/07 09:45:16;;;;;;;14.07;4.67;;;;;;;3.69;39.97;101239.00;5438065;32;34631;-67
2022/01/07 09:48:18;;;;;;;10.07;4.23;;;;;;;3.70;39.83;101239.00;5447293;32;33913;-66
2022/01/07 09:51:22;;;;;;;9.33;4.10;;;;;;;3.68;39.71;101232.94;5430447;32;33807;-64
2022/01/07 09:54:24;;;;;;;11.70;3.73;;;;;;;3.55;39.84;101232.91;5446936;32;34262;-67
2022/01/07 09:57:26;;;;;;;12.33;4.83;;;;;;;3.35;40.27;101223.31;5433147;32;34406;-68
2022/01/07 10:00:47;;;;;;;11.27;4.33;;;;;;;3.36;40.47;101218.97;5445497;32;35840;-67
2022/01/07 10:03:49;;;;;;;10.73;4.40;;;;;;;3.49;40.61;101206.03;5446566;32;36812;-64
2022/01/07 10:07:23;;;;;;;11.40;3.87;;;;;;;3.50;40.65;101219.87;5448035;32;34183;-65
2022/01/07 10:10:26;;;;;;;10.68;4.72;;;;;;;2.84;41.65;101217.00;5446251;32;35229;-63
2022/01/07 10:13:29;;;;;;;11.38;4.65;;;;;;;3.35;40.48;101206.81;5449864;32;34542;-65
2022/01/07 10:16:31;;;;;;;10.60;4.13;;;;;;;3.64;39.81;101210.37;5453032;32;34748;-65
2022/01/07 10:19:34;;;;;;;9.13;4.63;;;;;;;3.73;39.81;101199.13;5451404;32;34629;-66
2022/01/07 10:22:50;;;;;;;8.27;3.53;;;;;;;3.09;41.89;101210.22;5449397;32;33405;-68
2022/01/07 10:25:55;;;;;;;11.47;3.50;;;;;;;3.79;39.83;101193.94;5448756;32;33814;-65
2022/01/07 10:28:57;;;;;;;14.33;5.17;;;;;;;3.42;40.04;101191.28;5456138;32;35349;-66
2022/01/07 10:32:23;;;;;;;8.73;3.07;;;;;;;3.61;39.65;101183.53;5422729;32;35296;-67
2022/01/07 10:35:27;;;;;;;6.40;3.13;;;;;;;3.68;39.56;101180.94;5444358;32;35246;-67
2022/01/07 10:38:30;;;;;;;6.35;3.33;;;;;;;3.81;39.16;101176.63;5451460;32;33925;-71
2022/01/07 10:41:32;;;;;;;9.47;3.60;;;;;;;4.31;37.83;101163.59;5420870;32;35111;-68
2022/01/07 10:44:59;;;;;;;11.07;3.97;;;;;;;3.96;39.04;101163.63;5442595;32;33937;-65
2022/01/07 10:48:01;;;;;;;11.60;3.90;;;;;;;3.85;39.68;101159.28;5446137;32;34897;-65
2022/01/07 10:51:18;;;;;;;7.78;3.50;;;;;;;4.00;38.42;101151.50;5423235;32;33847;-64
2022/01/07 10:54:21;;;;;;;9.13;3.50;;;;;;;4.04;38.49;101159.28;5453068;32;34368;-67
2022/01/07 10:57:38;;;;;;;10.23;4.40;;;;;;;4.05;38.39;101147.12;5426093;32;34779;-69
2022/01/07 11:00:41;;;;;;;7.23;3.03;;;;;;;4.51;37.76;101149.72;5453790;32;34072;-67
2022/01/07 11:03:48;;;;;;;13.95;3.60;;;;;;;4.80;36.56;101126.16;5434348;32;33949;-68
2022/01/07 11:06:51;;;;;;;6.87;2.30;;;;;;;4.63;37.09;101136.62;5442387;32;32968;-67
2022/01/07 11:09:56;;;;;;;5.65;2.53;;;;;;;4.26;37.31;101133.25;5423796;32;34710;-66
2022/01/07 11:13:00;;;;;;;9.37;3.77;;;;;;;3.87;37.25;101132.41;5430942;32;33795;-68
2022/01/07 11:16:03;;;;;;;6.95;2.92;;;;;;;4.23;38.11;101138.47;5438823;32;34229;-67
2022/01/07 11:19:11;;;;;;;7.80;3.30;;;;;;;5.03;35.28;101128.69;5446458;32;34052;-66
2022/01/07 11:22:14;;;;;;;7.73;3.50;;;;;;;4.01;37.47;101130.69;5430605;32;34012;-66
2022/01/07 11:25:17;;;;;;;5.68;3.00;;;;;;;5.44;35.13;101120.63;5450943;32;34429;-66
2022/01/07 11:28:19;;;;;;;7.80;3.03;;;;;;;4.96;35.38;101116.53;5449129;32;34553;-67
2022/01/07 11:31:22;;;;;;;8.50;3.33;;;;;;;4.67;36.67;101116.66;5455073;32;35482;-68
2022/01/07 11:34:24;;;;;;;8.63;3.03;;;;;;;4.88;36.08;101107.03;5437899;32;34152;-67
2022/01/07 11:37:36;;;;;;;5.57;2.60;;;;;;;6.27;32.99;101093.91;5434927;32;34360;-68
2022/01/07 11:40:45;;;;;;;7.33;3.10;;;;;;;5.75;34.31;101100.44;5411627;32;34633;-67
2022/01/07 11:43:48;;;;;;;8.43;3.13;;;;;;;6.60;32.42;101084.84;5436557;32;35273;-66
2022/01/07 11:46:51;;;;;;;8.65;3.25;;;;;;;6.46;32.12;101092.84;5426252;32;33970;-66
2022/01/07 11:50:04;;;;;;;8.20;3.60;;;;;;;7.12;31.71;101071.97;5435103;32;33547;-66
2022/01/07 11:53:07;;;;;;;12.40;3.67;;;;;;;5.60;33.93;101090.09;5435693;32;35448;-67
2022/01/07 11:56:11;;;;;;;6.97;3.23;;;;;;;5.66;34.34;101077.87;5445292;32;35181;-65
2022/01/07 11:59:20;;;;;;;7.90;3.63;;;;;;;6.96;32.11;101079.16;5424071;32;35491;-68
2022/01/07 12:02:23;;;;;;;11.30;3.73;;;;;;;6.13;32.93;101078.38;5445339;32;35632;-66
2022/01/07 12:05:32;;;;;;;10.05;3.33;;;;;;;6.88;31.49;101067.06;5420744;32;35204;-65
2022/01/07 12:08:40;;;;;;;9.30;3.77;;;;;;;7.11;31.12;101064.16;5435655;32;34573;-68
2022/01/07 12:11:53;;;;;;;14.17;3.90;;;;;;;7.63;30.05;101066.84;5433552;32;35581;-68
2022/01/07 12:14:59;;;;;;;9.17;3.63;;;;;;;7.52;30.99;101063.53;5431994;32;35158;-65
2022/01/07 12:18:11;;;;;;;9.65;3.42;;;;;;;7.77;29.93;101057.00;5445711;32;34421;-64
2022/01/07 12:21:13;;;;;;;10.53;4.00;;;;;;;10.53;26.60;101043.81;5445109;32;34936;-64
2022/01/07 12:24:20;;;;;;;9.47;3.70;;;;;;;12.97;22.45;101032.12;5450735;32;35083;-67
2022/01/07 12:27:24;;;;;;;10.57;3.83;;;;;;;11.67;23.40;101039.44;5434467;32;34445;-68
2022/01/07 12:30:27;;;;;;;12.03;4.77;;;;;;;10.63;25.59;101032.16;5429145;32;34442;-66
2022/01/07 12:33:30;;;;;;;7.30;3.58;;;;;;;9.86;25.84;101041.25;5440481;32;36369;-67
2022/01/07 12:36:34;;;;;;;9.77;4.43;;;;;;;12.45;22.85;101016.50;5448166;32;35149;-67
2022/01/07 12:39:39;;;;;;;14.90;4.57;;;;;;;10.25;24.79;101022.72;5428437;32;34953;-67
2022/01/07 12:42:44;;;;;;;10.03;4.13;;;;;;;8.85;27.57;101030.50;5440326;32;33778;-68
2022/01/07 12:45:56;;;;;;;;;;;;;;;10.28;26.00;101020.84;5453013;32;35157;-68
2022/01/07 12:48:59;;;;;;;7.43;3.70;;;;;;;9.19;27.06;101021.88;5446850;32;34209;-69
2022/01/07 12:52:07;;;;;;;8.77;3.67;;;;;;;9.45;26.60;101021.25;5455407;32;34533;-67
2022/01/07 12:55:18;;;;;;;10.03;3.80;;;;;;;6.56;30.91;101018.69;5437293;32;34544;-67
2022/01/07 12:58:28;;;;;;;10.37;3.73;;;;;;;7.29;29.91;101016.81;5443017;32;34789;-66
2022/01/07 13:01:31;;;;;;;8.73;3.77;;;;;;;9.04;28.48;101010.00;5440270;32;34142;-66
2022/01/07 13:04:37;;;;;;;11.02;4.30;;;;;;;9.67;27.46;101009.34;5434758;32;33880;-66
2022/01/07 13:07:41;;;;;;;7.50;3.17;;;;;;;9.21;27.52;101004.38;5441371;32;34769;-67
2022/01/07 13:10:58;;;;;;;10.20;4.13;;;;;;;6.85;31.30;101007.88;5433939;32;34161;-66
2022/01/07 13:14:06;;;;;;;8.03;3.63;;;;;;;7.74;29.88;101009.09;5448601;32;34954;-67
2022/01/07 13:17:10;;;;;;;9.03;3.80;;;;;;;6.36;31.83;101011.13;5443183;32;34107;-67
2022/01/07 13:20:27;;;;;;;8.37;3.73;;;;;;;6.36;31.57;101005.88;5447880;32;33185;-67
2022/01/07 13:23:29;;;;;;;10.33;3.97;;;;;;;5.04;34.27;101008.84;5458468;32;34563;-66
2022/01/07 13:26:34;;;;;;;9.83;3.57;;;;;;;5.28;33.62;101006.91;5449114;32;34132;-66
2022/01/07 13:29:36;;;;;;;6.83;3.20;;;;;;;5.83;32.49;100991.66;5447353;32;35770;-66
2022/01/07 13:32:39;;;;;;;11.33;3.60;;;;;;;6.15;31.87;100995.72;5454805;32;34060;-65
2022/01/07 13:35:42;;;;;;;8.30;3.53;;;;;;;5.75;32.49;100992.63;5447878;32;33986;-67
2022/01/07 13:38:57;;;;;;;9.07;3.47;;;;;;;5.53;32.64;100994.53;5455226;32;34733;-67
2022/01/07 13:42:02;;;;;;;9.20;3.73;;;;;;;4.80;34.35;100990.75;5434714;32;31260;-67
2022/01/07 13:45:04;;;;;;;13.37;5.70;;;;;;;4.41;35.52;100981.41;5457247;32;34036;-68
2022/01/07 13:48:11;;;;;;;7.57;3.50;;;;;;;4.98;34.25;100979.34;5441000;32;35428;-66
2022/01/07 13:51:13;;;;;;;9.37;3.10;;;;;;;5.33;33.55;100979.94;5453128;32;34042;-66
2022/01/07 13:54:19;;;;;;;7.77;3.30;;;;;;;5.62;32.49;100973.63;5460461;32;34726;-66
2022/01/07 13:57:23;;;;;;;11.93;3.70;;;;;;;5.06;33.23;100977.56;5454802;32;34201;-67
2022/01/07 14:00:29;;;;;;;8.37;3.43;;;;;;;4.89;33.52;100983.75;5446296;32;33978;-67
2022/01/07 14:03:49;;;;;;;9.23;3.90;;;;;;;5.71;32.14;100965.69;5436198;32;34209;-67
2022/01/07 14:06:51;;;;;;;7.97;3.30;;;;;;;7.37;29.62;100957.41;5449052;32;34527;-66
2022/01/07 14:09:59;;;;;;;9.10;3.33;;;;;;;7.64;28.68;100957.81;5460741;32;34337;-67
2022/01/07 14:13:03;;;;;;;9.53;3.90;;;;;;;6.51;30.42;100963.06;5436187;32;34446;-67
2022/01/07 14:16:07;;;;;;;10.30;3.90;;;;;;;7.46;29.22;100953.75;5446524;32;33953;-66
2022/01/07 14:19:09;;;;;;;8.30;3.40;;;;;;;6.77;30.13;100950.50;5454765;32;35032;-66
2022/01/07 14:22:11;;;;;;;10.00;3.70;;;;;;;7.11;29.66;100956.97;5460656;32;33916;-67
2022/01/07 14:25:19;;;;;;;13.43;3.97;;;;;;;7.29;29.11;100943.62;5455275;32;34977;-65
2022/01/07 14:28:22;;;;;;;6.93;3.43;;;;;;;6.32;30.34;100951.16;5428472;32;34201;-66